sensor_id;sensor_type;location;lat;lon;timestamp;P1;durP1;ratioP1;P2;durP2;ratioP2
32038;SDS011;18549;42.286;22.688;2023-08-30T00:02:01;12.30;;;6.40;;
32038;SDS011;18549;42.286;22.688;2023-08-30T00:04:29;8.35;;;6.47;;
32038;SDS011;18549;42.286;22.688;2023-08-30T00:06:56;14.70;;;8.10;;
32038;SDS011;18549;42.286;22.688;2023-08-30T00:09:23;13.02;;;8.00;;
32038;SDS011;18549;42.286;22.688;2023-08-30T00:11:53;9.50;;;7.15;;
32038;SDS011;18549;42.286;22.688;2023-08-30T00:14:20;8.57;;;6.65;;
32038;SDS011;18549;42.286;22.688;2023-08-30T00:16:48;10.90;;;5.93;;
32038;SDS011;18549;42.286;22.688;2023-08-30T00:19:15;10.75;;;7.32;;
32038;SDS011;18549;42.286;22.688;2023-08-30T00:21:43;14.45;;;7.45;;
32038;SDS011;18549;42.286;22.688;2023-08-30T00:24:10;10.93;;;6.65;;
32038;SDS011;18549;42.286;22.688;2023-08-30T00:26:38;12.82;;;6.85;;
32038;SDS011;18549;42.286;22.688;2023-08-30T00:29:07;12.13;;;6.85;;
32038;SDS011;18549;42.286;22.688;2023-08-30T00:31:35;10.00;;;6.90;;
32038;SDS011;18549;42.286;22.688;2023-08-30T00:34:02;13.18;;;7.12;;
32038;SDS011;18549;42.286;22.688;2023-08-30T00:36:30;9.90;;;6.32;;
32038;SDS011;18549;42.286;22.688;2023-08-30T00:38:57;11.57;;;7.18;;
32038;SDS011;18549;42.286;22.688;2023-08-30T00:41:25;12.65;;;7.62;;
32038;SDS011;18549;42.286;22.688;2023-08-30T00:43:53;12.73;;;6.87;;
32038;SDS011;18549;42.286;22.688;2023-08-30T00:46:23;12.37;;;6.35;;
32038;SDS011;18549;42.286;22.688;2023-08-30T00:48:51;8.68;;;7.18;;
32038;SDS011;18549;42.286;22.688;2023-08-30T00:51:19;13.07;;;7.37;;
32038;SDS011;18549;42.286;22.688;2023-08-30T00:53:47;10.48;;;7.22;;
32038;SDS011;18549;42.286;22.688;2023-08-30T00:56:15;9.43;;;6.82;;
32038;SDS011;18549;42.286;22.688;2023-08-30T00:58:44;12.82;;;6.55;;
32038;SDS011;18549;42.286;22.688;2023-08-30T01:01:12;17.83;;;6.57;;
32038;SDS011;18549;42.286;22.688;2023-08-30T01:03:41;12.00;;;7.25;;
32038;SDS011;18549;42.286;22.688;2023-08-30T01:06:08;11.07;;;7.25;;
32038;SDS011;18549;42.286;22.688;2023-08-30T01:08:36;10.75;;;6.60;;
32038;SDS011;18549;42.286;22.688;2023-08-30T01:11:07;11.00;;;7.45;;
32038;SDS011;18549;42.286;22.688;2023-08-30T01:13:43;13.75;;;6.25;;
32038;SDS011;18549;42.286;22.688;2023-08-30T01:16:13;14.73;;;7.25;;
32038;SDS011;18549;42.286;22.688;2023-08-30T01:18:43;13.65;;;7.12;;
32038;SDS011;18549;42.286;22.688;2023-08-30T01:21:13;8.80;;;7.20;;
32038;SDS011;18549;42.286;22.688;2023-08-30T01:23:49;11.38;;;7.45;;
32038;SDS011;18549;42.286;22.688;2023-08-30T01:26:24;8.32;;;7.37;;
32038;SDS011;18549;42.286;22.688;2023-08-30T01:29:05;10.32;;;7.07;;
32038;SDS011;18549;42.286;22.688;2023-08-30T01:31:35;14.18;;;7.87;;
32038;SDS011;18549;42.286;22.688;2023-08-30T01:34:03;14.40;;;7.65;;
32038;SDS011;18549;42.286;22.688;2023-08-30T01:36:31;15.77;;;7.32;;
32038;SDS011;18549;42.286;22.688;2023-08-30T01:38:59;10.87;;;7.73;;
32038;SDS011;18549;42.286;22.688;2023-08-30T01:41:27;10.88;;;8.13;;
32038;SDS011;18549;42.286;22.688;2023-08-30T01:43:56;13.77;;;9.98;;
32038;SDS011;18549;42.286;22.688;2023-08-30T01:46:25;15.95;;;10.57;;
32038;SDS011;18549;42.286;22.688;2023-08-30T01:48:54;15.50;;;9.63;;
32038;SDS011;18549;42.286;22.688;2023-08-30T01:51:23;14.85;;;9.35;;
32038;SDS011;18549;42.286;22.688;2023-08-30T01:53:51;20.58;;;10.60;;
32038;SDS011;18549;42.286;22.688;2023-08-30T01:56:19;17.45;;;10.23;;
32038;SDS011;18549;42.286;22.688;2023-08-30T01:58:47;16.50;;;10.95;;
32038;SDS011;18549;42.286;22.688;2023-08-30T02:01:14;17.08;;;10.27;;
32038;SDS011;18549;42.286;22.688;2023-08-30T02:03:44;17.52;;;9.93;;
32038;SDS011;18549;42.286;22.688;2023-08-30T02:06:13;16.00;;;9.68;;
32038;SDS011;18549;42.286;22.688;2023-08-30T02:08:47;16.12;;;9.40;;
32038;SDS011;18549;42.286;22.688;2023-08-30T02:11:22;12.05;;;8.80;;
32038;SDS011;18549;42.286;22.688;2023-08-30T02:13:53;11.05;;;8.27;;
32038;SDS011;18549;42.286;22.688;2023-08-30T02:16:25;13.52;;;9.38;;
32038;SDS011;18549;42.286;22.688;2023-08-30T02:18:54;15.80;;;9.07;;
32038;SDS011;18549;42.286;22.688;2023-08-30T02:21:22;16.17;;;9.07;;
32038;SDS011;18549;42.286;22.688;2023-08-30T02:23:50;16.65;;;8.55;;
32038;SDS011;18549;42.286;22.688;2023-08-30T02:26:20;12.88;;;9.07;;
32038;SDS011;18549;42.286;22.688;2023-08-30T02:28:48;18.25;;;9.60;;
32038;SDS011;18549;42.286;22.688;2023-08-30T02:31:16;16.62;;;10.27;;
32038;SDS011;18549;42.286;22.688;2023-08-30T02:33:43;15.25;;;9.40;;
32038;SDS011;18549;42.286;22.688;2023-08-30T02:36:12;12.75;;;9.32;;
32038;SDS011;18549;42.286;22.688;2023-08-30T02:38:39;17.87;;;9.27;;
32038;SDS011;18549;42.286;22.688;2023-08-30T02:41:07;16.30;;;9.35;;
32038;SDS011;18549;42.286;22.688;2023-08-30T02:43:35;13.95;;;9.13;;
32038;SDS011;18549;42.286;22.688;2023-08-30T02:46:03;13.68;;;8.98;;
32038;SDS011;18549;42.286;22.688;2023-08-30T02:48:30;19.95;;;9.52;;
32038;SDS011;18549;42.286;22.688;2023-08-30T02:50:59;14.38;;;8.63;;
32038;SDS011;18549;42.286;22.688;2023-08-30T02:53:30;16.40;;;8.13;;
32038;SDS011;18549;42.286;22.688;2023-08-30T02:55:58;15.23;;;8.85;;
32038;SDS011;18549;42.286;22.688;2023-08-30T02:58:25;12.13;;;8.70;;
32038;SDS011;18549;42.286;22.688;2023-08-30T03:00:52;14.20;;;7.97;;
32038;SDS011;18549;42.286;22.688;2023-08-30T03:03:20;20.05;;;8.25;;
32038;SDS011;18549;42.286;22.688;2023-08-30T03:05:48;14.93;;;8.15;;
32038;SDS011;18549;42.286;22.688;2023-08-30T03:08:15;10.70;;;7.82;;
32038;SDS011;18549;42.286;22.688;2023-08-30T03:10:44;10.77;;;7.18;;
32038;SDS011;18549;42.286;22.688;2023-08-30T03:13:11;12.98;;;7.47;;
32038;SDS011;18549;42.286;22.688;2023-08-30T03:15:39;11.05;;;8.00;;
32038;SDS011;18549;42.286;22.688;2023-08-30T03:18:07;18.62;;;7.68;;
32038;SDS011;18549;42.286;22.688;2023-08-30T03:20:34;12.60;;;7.90;;
32038;SDS011;18549;42.286;22.688;2023-08-30T03:23:02;14.93;;;8.95;;
32038;SDS011;18549;42.286;22.688;2023-08-30T03:25:30;12.73;;;8.23;;
32038;SDS011;18549;42.286;22.688;2023-08-30T03:27:59;17.02;;;9.23;;
32038;SDS011;18549;42.286;22.688;2023-08-30T03:30:27;12.18;;;8.32;;
32038;SDS011;18549;42.286;22.688;2023-08-30T03:32:56;15.02;;;8.63;;
32038;SDS011;18549;42.286;22.688;2023-08-30T03:35:23;21.37;;;10.40;;
32038;SDS011;18549;42.286;22.688;2023-08-30T03:37:51;13.48;;;8.40;;
32038;SDS011;18549;42.286;22.688;2023-08-30T03:40:19;14.77;;;9.02;;
32038;SDS011;18549;42.286;22.688;2023-08-30T03:42:47;18.62;;;8.98;;
32038;SDS011;18549;42.286;22.688;2023-08-30T03:45:16;21.20;;;8.98;;
32038;SDS011;18549;42.286;22.688;2023-08-30T03:47:43;17.50;;;9.05;;
32038;SDS011;18549;42.286;22.688;2023-08-30T03:50:10;19.17;;;8.77;;
32038;SDS011;18549;42.286;22.688;2023-08-30T03:52:38;15.30;;;9.95;;
32038;SDS011;18549;42.286;22.688;2023-08-30T03:55:06;13.13;;;9.60;;
32038;SDS011;18549;42.286;22.688;2023-08-30T03:57:34;21.52;;;8.98;;
32038;SDS011;18549;42.286;22.688;2023-08-30T04:00:01;15.48;;;9.13;;
32038;SDS011;18549;42.286;22.688;2023-08-30T04:02:31;12.63;;;9.13;;
32038;SDS011;18549;42.286;22.688;2023-08-30T04:04:58;14.70;;;9.50;;
32038;SDS011;18549;42.286;22.688;2023-08-30T04:07:25;11.68;;;8.63;;
32038;SDS011;18549;42.286;22.688;2023-08-30T04:09:53;19.33;;;8.65;;
32038;SDS011;18549;42.286;22.688;2023-08-30T04:12:20;18.37;;;9.02;;
32038;SDS011;18549;42.286;22.688;2023-08-30T04:14:48;23.85;;;11.40;;
32038;SDS011;18549;42.286;22.688;2023-08-30T04:17:15;22.65;;;11.48;;
32038;SDS011;18549;42.286;22.688;2023-08-30T04:19:45;26.73;;;13.23;;
32038;SDS011;18549;42.286;22.688;2023-08-30T04:22:12;23.98;;;13.88;;
32038;SDS011;18549;42.286;22.688;2023-08-30T04:24:41;25.52;;;13.07;;
32038;SDS011;18549;42.286;22.688;2023-08-30T04:27:08;21.65;;;12.23;;
32038;SDS011;18549;42.286;22.688;2023-08-30T04:29:36;15.07;;;11.35;;
32038;SDS011;18549;42.286;22.688;2023-08-30T04:32:05;19.23;;;11.38;;
32038;SDS011;18549;42.286;22.688;2023-08-30T04:34:32;17.48;;;10.15;;
32038;SDS011;18549;42.286;22.688;2023-08-30T04:37:01;19.48;;;10.07;;
32038;SDS011;18549;42.286;22.688;2023-08-30T04:39:28;20.25;;;10.05;;
32038;SDS011;18549;42.286;22.688;2023-08-30T04:41:56;11.32;;;8.73;;
32038;SDS011;18549;42.286;22.688;2023-08-30T04:44:23;20.52;;;9.43;;
32038;SDS011;18549;42.286;22.688;2023-08-30T04:46:53;13.52;;;9.70;;
32038;SDS011;18549;42.286;22.688;2023-08-30T04:49:20;18.35;;;11.57;;
32038;SDS011;18549;42.286;22.688;2023-08-30T04:51:50;17.42;;;12.10;;
32038;SDS011;18549;42.286;22.688;2023-08-30T04:54:19;23.12;;;10.77;;
32038;SDS011;18549;42.286;22.688;2023-08-30T04:56:48;17.52;;;9.85;;
32038;SDS011;18549;42.286;22.688;2023-08-30T04:59:16;15.20;;;9.88;;
32038;SDS011;18549;42.286;22.688;2023-08-30T05:01:45;12.18;;;9.15;;
32038;SDS011;18549;42.286;22.688;2023-08-30T05:04:12;14.95;;;9.25;;
32038;SDS011;18549;42.286;22.688;2023-08-30T05:06:40;9.88;;;8.45;;
32038;SDS011;18549;42.286;22.688;2023-08-30T05:09:07;13.25;;;8.50;;
32038;SDS011;18549;42.286;22.688;2023-08-30T05:11:37;14.18;;;8.02;;
32038;SDS011;18549;42.286;22.688;2023-08-30T05:14:06;16.10;;;8.00;;
32038;SDS011;18549;42.286;22.688;2023-08-30T05:16:37;17.10;;;9.95;;
32038;SDS011;18549;42.286;22.688;2023-08-30T05:19:05;16.80;;;8.93;;
32038;SDS011;18549;42.286;22.688;2023-08-30T05:21:33;17.12;;;8.95;;
32038;SDS011;18549;42.286;22.688;2023-08-30T05:24:00;16.67;;;8.52;;
32038;SDS011;18549;42.286;22.688;2023-08-30T05:26:28;18.90;;;9.48;;
32038;SDS011;18549;42.286;22.688;2023-08-30T05:28:56;14.57;;;10.20;;
32038;SDS011;18549;42.286;22.688;2023-08-30T05:31:24;23.33;;;9.50;;
32038;SDS011;18549;42.286;22.688;2023-08-30T05:33:51;17.45;;;9.43;;
32038;SDS011;18549;42.286;22.688;2023-08-30T05:36:19;18.67;;;10.40;;
32038;SDS011;18549;42.286;22.688;2023-08-30T05:38:47;21.67;;;11.20;;
32038;SDS011;18549;42.286;22.688;2023-08-30T05:41:14;12.60;;;8.45;;
32038;SDS011;18549;42.286;22.688;2023-08-30T05:43:42;23.30;;;10.55;;
32038;SDS011;18549;42.286;22.688;2023-08-30T05:46:12;17.27;;;9.85;;
32038;SDS011;18549;42.286;22.688;2023-08-30T05:48:40;15.40;;;9.82;;
32038;SDS011;18549;42.286;22.688;2023-08-30T05:51:08;18.40;;;10.02;;
32038;SDS011;18549;42.286;22.688;2023-08-30T05:53:36;30.85;;;10.65;;
32038;SDS011;18549;42.286;22.688;2023-08-30T05:56:03;27.53;;;10.67;;
32038;SDS011;18549;42.286;22.688;2023-08-30T05:58:32;15.32;;;10.07;;
32038;SDS011;18549;42.286;22.688;2023-08-30T06:01:01;15.80;;;9.48;;
32038;SDS011;18549;42.286;22.688;2023-08-30T06:03:32;20.02;;;9.98;;
32038;SDS011;18549;42.286;22.688;2023-08-30T06:05:59;18.87;;;10.13;;
32038;SDS011;18549;42.286;22.688;2023-08-30T06:08:27;13.43;;;10.93;;
32038;SDS011;18549;42.286;22.688;2023-08-30T06:10:54;18.17;;;11.32;;
32038;SDS011;18549;42.286;22.688;2023-08-30T06:13:22;18.80;;;10.95;;
32038;SDS011;18549;42.286;22.688;2023-08-30T06:15:50;17.05;;;11.98;;
32038;SDS011;18549;42.286;22.688;2023-08-30T06:18:18;16.40;;;12.02;;
32038;SDS011;18549;42.286;22.688;2023-08-30T06:20:47;23.35;;;10.65;;
32038;SDS011;18549;42.286;22.688;2023-08-30T06:23:14;19.67;;;12.02;;
32038;SDS011;18549;42.286;22.688;2023-08-30T06:25:45;21.80;;;12.02;;
32038;SDS011;18549;42.286;22.688;2023-08-30T06:28:19;21.35;;;11.48;;
32038;SDS011;18549;42.286;22.688;2023-08-30T06:30:46;25.42;;;11.90;;
32038;SDS011;18549;42.286;22.688;2023-08-30T06:33:14;15.27;;;11.20;;
32038;SDS011;18549;42.286;22.688;2023-08-30T06:35:41;24.90;;;11.52;;
32038;SDS011;18549;42.286;22.688;2023-08-30T06:38:10;17.73;;;11.57;;
32038;SDS011;18549;42.286;22.688;2023-08-30T06:40:42;14.07;;;11.35;;
32038;SDS011;18549;42.286;22.688;2023-08-30T06:43:10;19.45;;;10.43;;
32038;SDS011;18549;42.286;22.688;2023-08-30T06:45:38;17.00;;;10.48;;
32038;SDS011;18549;42.286;22.688;2023-08-30T06:48:06;16.65;;;9.80;;
32038;SDS011;18549;42.286;22.688;2023-08-30T06:50:34;19.85;;;9.10;;
32038;SDS011;18549;42.286;22.688;2023-08-30T06:53:01;14.77;;;10.32;;
32038;SDS011;18549;42.286;22.688;2023-08-30T06:55:30;15.02;;;9.73;;
32038;SDS011;18549;42.286;22.688;2023-08-30T06:57:58;20.52;;;9.57;;
32038;SDS011;18549;42.286;22.688;2023-08-30T07:00:26;14.98;;;9.63;;
32038;SDS011;18549;42.286;22.688;2023-08-30T07:02:53;20.70;;;10.35;;
32038;SDS011;18549;42.286;22.688;2023-08-30T07:05:22;17.58;;;10.35;;
32038;SDS011;18549;42.286;22.688;2023-08-30T07:07:49;16.85;;;9.75;;
32038;SDS011;18549;42.286;22.688;2023-08-30T07:10:17;16.87;;;8.48;;
32038;SDS011;18549;42.286;22.688;2023-08-30T07:12:47;19.67;;;9.32;;
32038;SDS011;18549;42.286;22.688;2023-08-30T07:15:15;12.05;;;8.80;;
32038;SDS011;18549;42.286;22.688;2023-08-30T07:17:44;18.40;;;9.95;;
32038;SDS011;18549;42.286;22.688;2023-08-30T07:20:12;20.77;;;9.13;;
32038;SDS011;18549;42.286;22.688;2023-08-30T07:22:39;14.13;;;9.45;;
32038;SDS011;18549;42.286;22.688;2023-08-30T07:25:07;18.70;;;9.60;;
32038;SDS011;18549;42.286;22.688;2023-08-30T07:27:35;21.37;;;10.27;;
32038;SDS011;18549;42.286;22.688;2023-08-30T07:30:05;15.25;;;9.07;;
32038;SDS011;18549;42.286;22.688;2023-08-30T07:32:33;17.25;;;9.80;;
32038;SDS011;18549;42.286;22.688;2023-08-30T07:35:01;13.65;;;9.65;;
32038;SDS011;18549;42.286;22.688;2023-08-30T07:37:28;15.32;;;9.30;;
32038;SDS011;18549;42.286;22.688;2023-08-30T07:39:56;20.00;;;9.43;;
32038;SDS011;18549;42.286;22.688;2023-08-30T07:42:23;21.60;;;9.38;;
32038;SDS011;18549;42.286;22.688;2023-08-30T07:44:51;18.67;;;8.60;;
32038;SDS011;18549;42.286;22.688;2023-08-30T07:47:20;12.82;;;7.87;;
32038;SDS011;18549;42.286;22.688;2023-08-30T07:49:47;15.65;;;8.07;;
32038;SDS011;18549;42.286;22.688;2023-08-30T07:52:14;13.30;;;8.23;;
32038;SDS011;18549;42.286;22.688;2023-08-30T07:54:42;15.32;;;7.60;;
32038;SDS011;18549;42.286;22.688;2023-08-30T07:57:10;15.27;;;7.80;;
32038;SDS011;18549;42.286;22.688;2023-08-30T07:59:37;14.73;;;9.20;;
32038;SDS011;18549;42.286;22.688;2023-08-30T08:02:06;23.87;;;10.05;;
32038;SDS011;18549;42.286;22.688;2023-08-30T08:04:35;15.38;;;9.00;;
32038;SDS011;18549;42.286;22.688;2023-08-30T08:07:03;19.00;;;8.02;;
32038;SDS011;18549;42.286;22.688;2023-08-30T08:09:31;11.45;;;7.57;;
32038;SDS011;18549;42.286;22.688;2023-08-30T08:11:59;11.82;;;7.60;;
32038;SDS011;18549;42.286;22.688;2023-08-30T08:14:26;15.15;;;7.75;;
32038;SDS011;18549;42.286;22.688;2023-08-30T08:16:53;15.00;;;9.07;;
32038;SDS011;18549;42.286;22.688;2023-08-30T08:19:23;15.20;;;7.68;;
32038;SDS011;18549;42.286;22.688;2023-08-30T08:21:52;17.83;;;9.27;;
32038;SDS011;18549;42.286;22.688;2023-08-30T08:24:20;13.18;;;7.90;;
32038;SDS011;18549;42.286;22.688;2023-08-30T08:26:47;13.07;;;8.63;;
32038;SDS011;18549;42.286;22.688;2023-08-30T08:29:15;14.60;;;7.82;;
32038;SDS011;18549;42.286;22.688;2023-08-30T08:31:42;11.75;;;7.72;;
32038;SDS011;18549;42.286;22.688;2023-08-30T08:34:10;12.07;;;7.90;;
32038;SDS011;18549;42.286;22.688;2023-08-30T08:36:39;14.95;;;8.00;;
32038;SDS011;18549;42.286;22.688;2023-08-30T08:39:11;15.05;;;7.22;;
32038;SDS011;18549;42.286;22.688;2023-08-30T08:41:40;12.10;;;7.60;;
32038;SDS011;18549;42.286;22.688;2023-08-30T08:44:08;13.68;;;7.28;;
32038;SDS011;18549;42.286;22.688;2023-08-30T08:46:37;20.50;;;7.35;;
32038;SDS011;18549;42.286;22.688;2023-08-30T08:49:09;10.87;;;6.80;;
32038;SDS011;18549;42.286;22.688;2023-08-30T08:51:39;12.05;;;6.37;;
32038;SDS011;18549;42.286;22.688;2023-08-30T08:54:09;9.52;;;7.18;;
32038;SDS011;18549;42.286;22.688;2023-08-30T08:56:37;11.95;;;6.20;;
32038;SDS011;18549;42.286;22.688;2023-08-30T08:59:05;10.80;;;7.17;;
32038;SDS011;18549;42.286;22.688;2023-08-30T09:01:33;15.57;;;6.78;;
32038;SDS011;18549;42.286;22.688;2023-08-30T09:04:03;18.65;;;6.15;;
32038;SDS011;18549;42.286;22.688;2023-08-30T09:06:32;9.98;;;6.32;;
32038;SDS011;18549;42.286;22.688;2023-08-30T09:09:00;12.20;;;6.62;;
32038;SDS011;18549;42.286;22.688;2023-08-30T09:11:31;10.40;;;5.95;;
32038;SDS011;18549;42.286;22.688;2023-08-30T09:13:59;9.68;;;5.47;;
32038;SDS011;18549;42.286;22.688;2023-08-30T09:16:27;10.93;;;6.28;;
32038;SDS011;18549;42.286;22.688;2023-08-30T09:18:57;10.18;;;6.15;;
32038;SDS011;18549;42.286;22.688;2023-08-30T09:21:26;12.95;;;5.68;;
32038;SDS011;18549;42.286;22.688;2023-08-30T09:23:56;8.65;;;4.50;;
32038;SDS011;18549;42.286;22.688;2023-08-30T09:26:25;17.33;;;5.72;;
32038;SDS011;18549;42.286;22.688;2023-08-30T09:28:55;11.95;;;6.28;;
32038;SDS011;18549;42.286;22.688;2023-08-30T09:31:22;9.32;;;5.55;;
32038;SDS011;18549;42.286;22.688;2023-08-30T09:33:57;10.55;;;5.80;;
32038;SDS011;18549;42.286;22.688;2023-08-30T09:36:27;10.00;;;5.30;;
32038;SDS011;18549;42.286;22.688;2023-08-30T09:39:02;10.05;;;6.15;;
32038;SDS011;18549;42.286;22.688;2023-08-30T09:41:30;19.40;;;6.87;;
32038;SDS011;18549;42.286;22.688;2023-08-30T09:44:05;10.43;;;6.40;;
32038;SDS011;18549;42.286;22.688;2023-08-30T09:46:39;9.90;;;5.60;;
32038;SDS011;18549;42.286;22.688;2023-08-30T09:49:08;10.55;;;6.05;;
32038;SDS011;18549;42.286;22.688;2023-08-30T09:51:38;15.73;;;6.55;;
32038;SDS011;18549;42.286;22.688;2023-08-30T09:54:10;10.85;;;5.87;;
32038;SDS011;18549;42.286;22.688;2023-08-30T09:56:41;7.82;;;5.75;;
32038;SDS011;18549;42.286;22.688;2023-08-30T09:59:11;9.15;;;5.53;;
32038;SDS011;18549;42.286;22.688;2023-08-30T10:01:39;17.67;;;6.87;;
32038;SDS011;18549;42.286;22.688;2023-08-30T10:04:08;11.05;;;5.30;;
32038;SDS011;18549;42.286;22.688;2023-08-30T10:06:37;10.18;;;6.12;;
32038;SDS011;18549;42.286;22.688;2023-08-30T10:09:06;10.88;;;5.18;;
32038;SDS011;18549;42.286;22.688;2023-08-30T10:11:35;12.27;;;5.18;;
32038;SDS011;18549;42.286;22.688;2023-08-30T10:14:03;12.35;;;5.62;;
32038;SDS011;18549;42.286;22.688;2023-08-30T10:16:35;10.52;;;6.40;;
32038;SDS011;18549;42.286;22.688;2023-08-30T10:19:10;11.05;;;5.78;;
32038;SDS011;18549;42.286;22.688;2023-08-30T10:21:40;9.05;;;5.60;;
32038;SDS011;18549;42.286;22.688;2023-08-30T10:24:10;10.95;;;5.18;;
32038;SDS011;18549;42.286;22.688;2023-08-30T10:26:40;9.85;;;4.90;;
32038;SDS011;18549;42.286;22.688;2023-08-30T10:29:11;13.93;;;5.55;;
32038;SDS011;18549;42.286;22.688;2023-08-30T10:31:42;8.73;;;5.50;;
32038;SDS011;18549;42.286;22.688;2023-08-30T10:34:13;9.90;;;5.03;;
32038;SDS011;18549;42.286;22.688;2023-08-30T10:36:42;7.35;;;5.37;;
32038;SDS011;18549;42.286;22.688;2023-08-30T10:39:11;12.27;;;5.22;;
32038;SDS011;18549;42.286;22.688;2023-08-30T10:41:53;7.45;;;5.15;;
32038;SDS011;18549;42.286;22.688;2023-08-30T10:44:23;9.30;;;5.03;;
32038;SDS011;18549;42.286;22.688;2023-08-30T10:46:55;16.12;;;6.15;;
32038;SDS011;18549;42.286;22.688;2023-08-30T10:49:23;8.82;;;5.10;;
32038;SDS011;18549;42.286;22.688;2023-08-30T10:51:54;8.80;;;4.68;;
32038;SDS011;18549;42.286;22.688;2023-08-30T10:54:24;9.95;;;4.15;;
32038;SDS011;18549;42.286;22.688;2023-08-30T10:56:55;8.25;;;4.32;;
32038;SDS011;18549;42.286;22.688;2023-08-30T10:59:24;13.75;;;5.18;;
32038;SDS011;18549;42.286;22.688;2023-08-30T11:01:52;8.50;;;4.97;;
32038;SDS011;18549;42.286;22.688;2023-08-30T11:04:22;6.55;;;4.60;;
32038;SDS011;18549;42.286;22.688;2023-08-30T11:06:50;12.25;;;5.07;;
32038;SDS011;18549;42.286;22.688;2023-08-30T11:09:19;10.07;;;5.12;;
32038;SDS011;18549;42.286;22.688;2023-08-30T11:11:47;7.90;;;4.22;;
32038;SDS011;18549;42.286;22.688;2023-08-30T11:14:16;10.75;;;4.45;;
32038;SDS011;18549;42.286;22.688;2023-08-30T11:16:44;10.38;;;4.22;;
32038;SDS011;18549;42.286;22.688;2023-08-30T11:19:12;9.63;;;4.20;;
32038;SDS011;18549;42.286;22.688;2023-08-30T11:21:42;10.38;;;4.35;;
32038;SDS011;18549;42.286;22.688;2023-08-30T11:24:10;6.25;;;3.92;;
32038;SDS011;18549;42.286;22.688;2023-08-30T11:26:38;15.40;;;3.78;;
32038;SDS011;18549;42.286;22.688;2023-08-30T11:29:06;10.85;;;4.40;;
32038;SDS011;18549;42.286;22.688;2023-08-30T11:31:34;6.50;;;3.80;;
32038;SDS011;18549;42.286;22.688;2023-08-30T11:34:02;6.37;;;3.28;;
32038;SDS011;18549;42.286;22.688;2023-08-30T11:36:30;7.62;;;3.53;;
32038;SDS011;18549;42.286;22.688;2023-08-30T11:39:00;6.50;;;3.65;;
32038;SDS011;18549;42.286;22.688;2023-08-30T11:41:29;6.47;;;3.45;;
32038;SDS011;18549;42.286;22.688;2023-08-30T11:43:58;5.53;;;3.50;;
32038;SDS011;18549;42.286;22.688;2023-08-30T11:46:25;7.32;;;3.47;;
32038;SDS011;18549;42.286;22.688;2023-08-30T11:48:53;6.28;;;3.28;;
32038;SDS011;18549;42.286;22.688;2023-08-30T11:51:20;6.25;;;3.37;;
32038;SDS011;18549;42.286;22.688;2023-08-30T11:53:48;8.82;;;3.15;;
32038;SDS011;18549;42.286;22.688;2023-08-30T11:56:17;6.72;;;3.78;;
32038;SDS011;18549;42.286;22.688;2023-08-30T11:58:45;5.00;;;3.20;;
32038;SDS011;18549;42.286;22.688;2023-08-30T12:01:14;7.50;;;3.00;;
32038;SDS011;18549;42.286;22.688;2023-08-30T12:03:45;6.87;;;3.03;;
32038;SDS011;18549;42.286;22.688;2023-08-30T12:06:15;6.20;;;3.35;;
32038;SDS011;18549;42.286;22.688;2023-08-30T12:08:43;8.38;;;3.08;;
32038;SDS011;18549;42.286;22.688;2023-08-30T12:11:18;6.75;;;2.83;;
32038;SDS011;18549;42.286;22.688;2023-08-30T12:13:46;5.78;;;2.70;;
32038;SDS011;18549;42.286;22.688;2023-08-30T12:16:16;7.30;;;3.87;;
32038;SDS011;18549;42.286;22.688;2023-08-30T12:18:44;9.95;;;4.40;;
32038;SDS011;18549;42.286;22.688;2023-08-30T12:21:12;11.43;;;3.40;;
32038;SDS011;18549;42.286;22.688;2023-08-30T12:23:41;9.65;;;3.47;;
32038;SDS011;18549;42.286;22.688;2023-08-30T12:26:08;4.80;;;2.60;;
32038;SDS011;18549;42.286;22.688;2023-08-30T12:28:38;6.80;;;2.85;;
32038;SDS011;18549;42.286;22.688;2023-08-30T12:31:06;6.85;;;3.30;;
32038;SDS011;18549;42.286;22.688;2023-08-30T12:33:34;6.20;;;3.08;;
32038;SDS011;18549;42.286;22.688;2023-08-30T12:36:02;6.82;;;2.78;;
32038;SDS011;18549;42.286;22.688;2023-08-30T12:38:30;4.95;;;2.40;;
32038;SDS011;18549;42.286;22.688;2023-08-30T12:40:57;8.15;;;2.55;;
32038;SDS011;18549;42.286;22.688;2023-08-30T12:43:27;9.15;;;3.05;;
32038;SDS011;18549;42.286;22.688;2023-08-30T12:45:56;6.87;;;3.10;;
32038;SDS011;18549;42.286;22.688;2023-08-30T12:48:25;5.95;;;2.87;;
32038;SDS011;18549;42.286;22.688;2023-08-30T12:50:52;5.72;;;2.90;;
32038;SDS011;18549;42.286;22.688;2023-08-30T12:53:19;9.27;;;3.20;;
32038;SDS011;18549;42.286;22.688;2023-08-30T12:55:47;7.62;;;3.12;;
32038;SDS011;18549;42.286;22.688;2023-08-30T12:58:14;12.10;;;3.25;;
32038;SDS011;18549;42.286;22.688;2023-08-30T13:00:42;9.25;;;3.83;;
32038;SDS011;18549;42.286;22.688;2023-08-30T13:03:11;5.18;;;3.12;;
32038;SDS011;18549;42.286;22.688;2023-08-30T13:05:38;4.82;;;2.70;;
32038;SDS011;18549;42.286;22.688;2023-08-30T13:08:06;7.18;;;3.33;;
32038;SDS011;18549;42.286;22.688;2023-08-30T13:10:33;9.65;;;3.17;;
32038;SDS011;18549;42.286;22.688;2023-08-30T13:13:01;8.10;;;3.30;;
32038;SDS011;18549;42.286;22.688;2023-08-30T13:15:28;10.95;;;3.20;;
32038;SDS011;18549;42.286;22.688;2023-08-30T13:17:56;5.90;;;3.10;;
32038;SDS011;18549;42.286;22.688;2023-08-30T13:20:24;4.85;;;2.70;;
32038;SDS011;18549;42.286;22.688;2023-08-30T13:22:52;6.30;;;3.00;;
32038;SDS011;18549;42.286;22.688;2023-08-30T13:25:20;5.95;;;2.67;;
32038;SDS011;18549;42.286;22.688;2023-08-30T13:27:47;12.15;;;3.65;;
32038;SDS011;18549;42.286;22.688;2023-08-30T13:30:15;10.63;;;3.15;;
32038;SDS011;18549;42.286;22.688;2023-08-30T13:32:42;4.80;;;2.72;;
32038;SDS011;18549;42.286;22.688;2023-08-30T13:35:10;6.70;;;2.80;;
32038;SDS011;18549;42.286;22.688;2023-08-30T13:37:39;13.45;;;3.42;;
32038;SDS011;18549;42.286;22.688;2023-08-30T13:40:07;9.40;;;6.10;;
32038;SDS011;18549;42.286;22.688;2023-08-30T13:42:35;9.85;;;2.78;;
32038;SDS011;18549;42.286;22.688;2023-08-30T13:45:03;10.02;;;3.28;;
32038;SDS011;18549;42.286;22.688;2023-08-30T13:47:32;7.47;;;3.35;;
32038;SDS011;18549;42.286;22.688;2023-08-30T13:50:00;8.45;;;3.05;;
32038;SDS011;18549;42.286;22.688;2023-08-30T13:52:29;3.95;;;2.67;;
32038;SDS011;18549;42.286;22.688;2023-08-30T13:54:58;4.78;;;3.12;;
32038;SDS011;18549;42.286;22.688;2023-08-30T13:57:25;6.30;;;3.00;;
32038;SDS011;18549;42.286;22.688;2023-08-30T13:59:52;4.85;;;2.83;;
32038;SDS011;18549;42.286;22.688;2023-08-30T14:02:20;9.73;;;2.83;;
32038;SDS011;18549;42.286;22.688;2023-08-30T14:04:47;5.43;;;3.12;;
32038;SDS011;18549;42.286;22.688;2023-08-30T14:07:15;12.93;;;2.97;;
32038;SDS011;18549;42.286;22.688;2023-08-30T14:09:42;7.95;;;2.85;;
32038;SDS011;18549;42.286;22.688;2023-08-30T14:12:11;6.55;;;3.70;;
32038;SDS011;18549;42.286;22.688;2023-08-30T14:14:38;8.88;;;2.90;;
32038;SDS011;18549;42.286;22.688;2023-08-30T14:17:06;12.57;;;3.53;;
32038;SDS011;18549;42.286;22.688;2023-08-30T14:19:33;9.10;;;2.80;;
32038;SDS011;18549;42.286;22.688;2023-08-30T14:22:01;3.35;;;2.37;;
32038;SDS011;18549;42.286;22.688;2023-08-30T14:24:30;5.10;;;2.85;;
32038;SDS011;18549;42.286;22.688;2023-08-30T14:26:59;7.57;;;2.55;;
32038;SDS011;18549;42.286;22.688;2023-08-30T14:29:29;6.70;;;3.67;;
32038;SDS011;18549;42.286;22.688;2023-08-30T14:31:56;5.20;;;2.42;;